GMME/RBA METAR and TAF weather

Enter ICAO airport designator
Station Type Date Time Source
GMME METAR 2018/12/13 15:00 UTC NOAA

GMME 131500Z 32010KT 3500 RA SCT011 BKN020 BKN050 14/12 Q1020 TEMPO 5000


Station Type Date Time Source
GMME Decoded METAR 2018/12/13 15:00 UTC NOAA

Rabat-Sale, Morocco (GMME) 34-03N 006-46W 75M
Dec 13, 2018 - 10:00 AM EST / 2018.12.13 1500 UTC
Wind: from the NW (320 degrees) at 12 MPH (10 KT):0
Visibility: 2 mile(s):0
Sky conditions: mostly cloudy
Weather: rain
Temperature: 57 F (14 C)
Dew Point: 53 F (12 C)
Relative Humidity: 87%
Pressure (altimeter): 30.12 in. Hg (1020 hPa)
ob: GMME 131500Z 32010KT 3500 RA SCT011 BKN020 BKN050 14/12 Q1020 TEMPO 5000
cycle: 15

Station Type Date Time Source
GMME TAF 2018/12/13 12:18 UTC NOAA

TAF GMME 131100Z 1312/1418 26015KT 5000 RA BKN013 BKN020 OVC050
TEMPO 1313/1316 32017G27KT 4000 SHRA BKN013 BKN016 SCT020TCU
BECMG 1319/1321 20005KT 6000 NSW SCT013 BKN020 OVC050


Example: see airport list